< < Back
Terminal Aerodrome Forecast


Current Version              Previous Versions:   1  2  3  4  5  6  7  8  9  

Terminal Aerodrome Forecast

857
FTUS42 KMLB 031140
TAFMCO
TAF
KMCO 031140Z 0312/0412 18008KT P6SM SCT060 BKN080
     FM031400 22012KT P6SM SCT035 BKN100 OVC250
      TEMPO 0316/0317 4SM SHRA BKN025
     FM031700 23014G22KT P6SM VCTS SCT020CB BKN060 OVC100
      TEMPO 0318/0321 3SM TSRA BKN020CB OVC040
     FM032200 24011KT P6SM VCSH SCT020 BKN080 OVC120
      TEMPO 0322/0324 5SM SHRA BKN025
     FM040100 23006KT P6SM SCT030 BKN120 OVC200
     FM040600 21004KT P6SM SCT100 OVC250=



Latest METAR

598
SAUS70 KWBC 032100 RRF
MTRMCO
METAR KMCO 032053Z 23013KT 10SM SCT015 BKN030 BKN090 27/24 A2997 RMK SCT
V BKN


USA.gov is the U.S. government's official web portal to all federal, state and local government web resources and services.